sensor_id;sensor_type;location;lat;lon;timestamp;temperature;humidity
22065;DHT22;11197;53.110;8.468;2022-08-01T00:01:06;19.70;99.90
22065;DHT22;11197;53.110;8.468;2022-08-01T00:03:33;19.70;99.90
22065;DHT22;11197;53.110;8.468;2022-08-01T00:05:59;19.70;99.90
22065;DHT22;11197;53.110;8.468;2022-08-01T00:08:25;19.60;99.90
22065;DHT22;11197;53.110;8.468;2022-08-01T00:10:51;19.60;99.90
22065;DHT22;11197;53.110;8.468;2022-08-01T00:13:17;19.60;99.90
22065;DHT22;11197;53.110;8.468;2022-08-01T00:15:43;19.60;99.90
22065;DHT22;11197;53.110;8.468;2022-08-01T00:18:09;19.60;99.90
22065;DHT22;11197;53.110;8.468;2022-08-01T00:20:35;19.60;99.90
22065;DHT22;11197;53.110;8.468;2022-08-01T00:23:02;19.60;99.90
22065;DHT22;11197;53.110;8.468;2022-08-01T00:25:28;19.60;99.90
22065;DHT22;11197;53.110;8.468;2022-08-01T00:27:54;19.60;99.90
22065;DHT22;11197;53.110;8.468;2022-08-01T00:30:20;19.60;99.90
22065;DHT22;11197;53.110;8.468;2022-08-01T00:32:47;19.60;99.90
22065;DHT22;11197;53.110;8.468;2022-08-01T00:35:13;19.50;99.90
22065;DHT22;11197;53.110;8.468;2022-08-01T00:37:40;19.60;99.90
22065;DHT22;11197;53.110;8.468;2022-08-01T00:40:07;19.50;99.90
22065;DHT22;11197;53.110;8.468;2022-08-01T00:42:34;19.50;99.90
22065;DHT22;11197;53.110;8.468;2022-08-01T00:45:03;19.50;99.90
22065;DHT22;11197;53.110;8.468;2022-08-01T00:47:33;19.50;99.90
22065;DHT22;11197;53.110;8.468;2022-08-01T00:49:59;19.50;99.90
22065;DHT22;11197;53.110;8.468;2022-08-01T00:52:25;19.50;99.90
22065;DHT22;11197;53.110;8.468;2022-08-01T00:54:51;19.50;99.90
22065;DHT22;11197;53.110;8.468;2022-08-01T00:57:17;19.50;99.90
22065;DHT22;11197;53.110;8.468;2022-08-01T00:59:43;19.50;99.90
22065;DHT22;11197;53.110;8.468;2022-08-01T01:02:09;19.50;99.90
22065;DHT22;11197;53.110;8.468;2022-08-01T01:04:36;19.50;99.90
22065;DHT22;11197;53.110;8.468;2022-08-01T01:09:54;19.50;99.90
22065;DHT22;11197;53.110;8.468;2022-08-01T01:12:35;19.50;99.90
22065;DHT22;11197;53.110;8.468;2022-08-01T01:17:45;19.50;99.90
22065;DHT22;11197;53.110;8.468;2022-08-01T01:20:13;19.50;99.90
22065;DHT22;11197;53.110;8.468;2022-08-01T01:22:53;19.40;99.90
22065;DHT22;11197;53.110;8.468;2022-08-01T01:30:55;19.40;99.90
22065;DHT22;11197;53.110;8.468;2022-08-01T01:33:25;19.40;99.90
22065;DHT22;11197;53.110;8.468;2022-08-01T01:35:59;19.40;99.90
22065;DHT22;11197;53.110;8.468;2022-08-01T01:38:29;19.40;99.90
22065;DHT22;11197;53.110;8.468;2022-08-01T01:40:56;19.40;99.90
22065;DHT22;11197;53.110;8.468;2022-08-01T01:43:23;19.40;99.90
22065;DHT22;11197;53.110;8.468;2022-08-01T01:45:51;19.40;99.90
22065;DHT22;11197;53.110;8.468;2022-08-01T01:48:19;19.40;99.90
22065;DHT22;11197;53.110;8.468;2022-08-01T01:50:47;19.40;99.90
22065;DHT22;11197;53.110;8.468;2022-08-01T01:53:16;19.40;99.90
22065;DHT22;11197;53.110;8.468;2022-08-01T01:55:46;19.40;99.90
22065;DHT22;11197;53.110;8.468;2022-08-01T01:58:14;19.30;99.90
22065;DHT22;11197;53.110;8.468;2022-08-01T02:00:45;19.30;99.90
22065;DHT22;11197;53.110;8.468;2022-08-01T02:03:12;19.30;99.90
22065;DHT22;11197;53.110;8.468;2022-08-01T02:05:41;19.30;99.90
22065;DHT22;11197;53.110;8.468;2022-08-01T02:08:10;19.30;99.90
22065;DHT22;11197;53.110;8.468;2022-08-01T02:10:39;19.30;99.90
22065;DHT22;11197;53.110;8.468;2022-08-01T02:13:05;19.20;99.90
22065;DHT22;11197;53.110;8.468;2022-08-01T02:15:34;19.20;99.90
22065;DHT22;11197;53.110;8.468;2022-08-01T02:18:06;19.20;99.90
22065;DHT22;11197;53.110;8.468;2022-08-01T02:20:34;19.20;99.90
22065;DHT22;11197;53.110;8.468;2022-08-01T02:23:11;19.20;99.90
22065;DHT22;11197;53.110;8.468;2022-08-01T02:25:52;19.20;99.90
22065;DHT22;11197;53.110;8.468;2022-08-01T02:28:25;19.20;99.90
22065;DHT22;11197;53.110;8.468;2022-08-01T02:30:56;19.20;99.90
22065;DHT22;11197;53.110;8.468;2022-08-01T02:33:33;19.20;99.90
22065;DHT22;11197;53.110;8.468;2022-08-01T02:36:06;19.20;99.90
22065;DHT22;11197;53.110;8.468;2022-08-01T02:38:33;19.20;99.90
22065;DHT22;11197;53.110;8.468;2022-08-01T02:41:04;19.20;99.90
22065;DHT22;11197;53.110;8.468;2022-08-01T02:43:32;19.20;99.90
22065;DHT22;11197;53.110;8.468;2022-08-01T02:46:01;19.20;99.90
22065;DHT22;11197;53.110;8.468;2022-08-01T02:48:30;19.10;99.90
22065;DHT22;11197;53.110;8.468;2022-08-01T02:50:59;19.10;99.90
22065;DHT22;11197;53.110;8.468;2022-08-01T02:53:27;19.10;99.90
22065;DHT22;11197;53.110;8.468;2022-08-01T02:55:57;19.10;99.90
22065;DHT22;11197;53.110;8.468;2022-08-01T02:58:25;19.10;99.90
22065;DHT22;11197;53.110;8.468;2022-08-01T03:00:52;19.10;99.90
22065;DHT22;11197;53.110;8.468;2022-08-01T03:03:18;19.00;99.90
22065;DHT22;11197;53.110;8.468;2022-08-01T03:05:44;19.10;99.90
22065;DHT22;11197;53.110;8.468;2022-08-01T03:08:12;19.00;99.90
22065;DHT22;11197;53.110;8.468;2022-08-01T03:10:44;19.00;99.90
22065;DHT22;11197;53.110;8.468;2022-08-01T03:13:12;19.00;99.90
22065;DHT22;11197;53.110;8.468;2022-08-01T03:15:40;19.00;99.90
22065;DHT22;11197;53.110;8.468;2022-08-01T03:18:09;18.90;99.90
22065;DHT22;11197;53.110;8.468;2022-08-01T03:20:36;18.90;99.90
22065;DHT22;11197;53.110;8.468;2022-08-01T03:23:05;19.00;99.90
22065;DHT22;11197;53.110;8.468;2022-08-01T03:25:38;18.90;99.90
22065;DHT22;11197;53.110;8.468;2022-08-01T03:28:07;18.90;99.90
22065;DHT22;11197;53.110;8.468;2022-08-01T03:30:35;18.90;99.90
22065;DHT22;11197;53.110;8.468;2022-08-01T03:33:02;18.90;99.90
22065;DHT22;11197;53.110;8.468;2022-08-01T03:35:35;18.80;99.90
22065;DHT22;11197;53.110;8.468;2022-08-01T03:38:04;18.80;99.90
22065;DHT22;11197;53.110;8.468;2022-08-01T03:40:49;18.80;99.90
22065;DHT22;11197;53.110;8.468;2022-08-01T03:43:27;18.80;99.90
22065;DHT22;11197;53.110;8.468;2022-08-01T03:45:57;18.80;99.90
22065;DHT22;11197;53.110;8.468;2022-08-01T03:48:29;18.80;99.90
22065;DHT22;11197;53.110;8.468;2022-08-01T03:50:58;18.80;99.90
22065;DHT22;11197;53.110;8.468;2022-08-01T03:53:28;18.80;99.90
22065;DHT22;11197;53.110;8.468;2022-08-01T03:55:56;18.70;99.90
22065;DHT22;11197;53.110;8.468;2022-08-01T03:58:23;18.70;99.90
22065;DHT22;11197;53.110;8.468;2022-08-01T04:00:49;18.70;99.90
22065;DHT22;11197;53.110;8.468;2022-08-01T04:03:15;18.70;99.90
22065;DHT22;11197;53.110;8.468;2022-08-01T04:05:42;18.70;99.90
22065;DHT22;11197;53.110;8.468;2022-08-01T04:08:08;18.70;99.90
22065;DHT22;11197;53.110;8.468;2022-08-01T04:10:34;18.70;99.90
22065;DHT22;11197;53.110;8.468;2022-08-01T04:13:00;18.60;99.90
22065;DHT22;11197;53.110;8.468;2022-08-01T04:15:26;18.60;99.90
22065;DHT22;11197;53.110;8.468;2022-08-01T04:17:52;18.50;99.90
22065;DHT22;11197;53.110;8.468;2022-08-01T04:20:20;18.50;99.90
22065;DHT22;11197;53.110;8.468;2022-08-01T04:22:45;18.50;99.90
22065;DHT22;11197;53.110;8.468;2022-08-01T04:25:25;18.50;99.90
22065;DHT22;11197;53.110;8.468;2022-08-01T04:27:52;18.50;99.90
22065;DHT22;11197;53.110;8.468;2022-08-01T04:30:22;18.50;99.90
22065;DHT22;11197;53.110;8.468;2022-08-01T04:32:51;18.40;99.90
22065;DHT22;11197;53.110;8.468;2022-08-01T04:35:19;18.40;99.90
22065;DHT22;11197;53.110;8.468;2022-08-01T04:37:46;18.40;99.90
22065;DHT22;11197;53.110;8.468;2022-08-01T04:40:14;18.30;99.90
22065;DHT22;11197;53.110;8.468;2022-08-01T04:42:41;18.30;99.90
22065;DHT22;11197;53.110;8.468;2022-08-01T04:45:08;18.30;99.90
22065;DHT22;11197;53.110;8.468;2022-08-01T04:47:36;18.30;99.90
22065;DHT22;11197;53.110;8.468;2022-08-01T04:50:07;18.30;99.90
22065;DHT22;11197;53.110;8.468;2022-08-01T04:52:35;18.30;99.90
22065;DHT22;11197;53.110;8.468;2022-08-01T04:55:02;18.20;99.90
22065;DHT22;11197;53.110;8.468;2022-08-01T04:57:28;18.20;99.90
22065;DHT22;11197;53.110;8.468;2022-08-01T04:59:54;18.20;99.90
22065;DHT22;11197;53.110;8.468;2022-08-01T05:02:23;18.20;99.90
22065;DHT22;11197;53.110;8.468;2022-08-01T05:04:49;18.20;99.90
22065;DHT22;11197;53.110;8.468;2022-08-01T05:07:14;18.20;99.90
22065;DHT22;11197;53.110;8.468;2022-08-01T05:09:42;18.20;99.90
22065;DHT22;11197;53.110;8.468;2022-08-01T05:12:09;18.20;99.90
22065;DHT22;11197;53.110;8.468;2022-08-01T05:14:36;18.20;99.90
22065;DHT22;11197;53.110;8.468;2022-08-01T05:17:03;18.20;99.90
22065;DHT22;11197;53.110;8.468;2022-08-01T05:19:31;18.10;99.90
22065;DHT22;11197;53.110;8.468;2022-08-01T05:21:58;18.10;99.90
22065;DHT22;11197;53.110;8.468;2022-08-01T05:24:27;18.10;99.90
22065;DHT22;11197;53.110;8.468;2022-08-01T05:26:55;18.10;99.90
22065;DHT22;11197;53.110;8.468;2022-08-01T05:29:21;18.10;99.90
22065;DHT22;11197;53.110;8.468;2022-08-01T05:31:47;18.10;99.90
22065;DHT22;11197;53.110;8.468;2022-08-01T05:34:13;18.10;99.90
22065;DHT22;11197;53.110;8.468;2022-08-01T05:36:39;18.00;99.90
22065;DHT22;11197;53.110;8.468;2022-08-01T05:39:04;18.00;99.90
22065;DHT22;11197;53.110;8.468;2022-08-01T05:41:30;18.00;99.90
22065;DHT22;11197;53.110;8.468;2022-08-01T05:43:56;18.00;99.90
22065;DHT22;11197;53.110;8.468;2022-08-01T05:46:22;18.00;99.90
22065;DHT22;11197;53.110;8.468;2022-08-01T05:48:48;17.90;99.90
22065;DHT22;11197;53.110;8.468;2022-08-01T05:51:14;17.90;99.90
22065;DHT22;11197;53.110;8.468;2022-08-01T05:53:40;17.90;99.90
22065;DHT22;11197;53.110;8.468;2022-08-01T05:56:06;17.90;99.90
22065;DHT22;11197;53.110;8.468;2022-08-01T05:58:32;17.90;99.90
22065;DHT22;11197;53.110;8.468;2022-08-01T06:00:58;17.90;99.90
22065;DHT22;11197;53.110;8.468;2022-08-01T06:03:24;17.90;99.90
22065;DHT22;11197;53.110;8.468;2022-08-01T06:05:51;17.90;99.90
22065;DHT22;11197;53.110;8.468;2022-08-01T06:08:18;17.90;99.90
22065;DHT22;11197;53.110;8.468;2022-08-01T06:10:44;17.80;99.90
22065;DHT22;11197;53.110;8.468;2022-08-01T06:13:10;17.80;99.90
22065;DHT22;11197;53.110;8.468;2022-08-01T06:15:40;17.70;99.90
22065;DHT22;11197;53.110;8.468;2022-08-01T06:18:06;17.70;99.90
22065;DHT22;11197;53.110;8.468;2022-08-01T06:20:31;17.70;99.90
22065;DHT22;11197;53.110;8.468;2022-08-01T06:22:57;17.70;99.90
22065;DHT22;11197;53.110;8.468;2022-08-01T06:25:23;17.70;99.90
22065;DHT22;11197;53.110;8.468;2022-08-01T06:27:50;17.70;99.90
22065;DHT22;11197;53.110;8.468;2022-08-01T06:30:16;17.60;99.90
22065;DHT22;11197;53.110;8.468;2022-08-01T06:32:42;17.70;99.90
22065;DHT22;11197;53.110;8.468;2022-08-01T06:35:08;17.60;99.90
22065;DHT22;11197;53.110;8.468;2022-08-01T06:37:34;17.60;99.90
22065;DHT22;11197;53.110;8.468;2022-08-01T06:40:04;17.60;99.90
22065;DHT22;11197;53.110;8.468;2022-08-01T06:42:31;17.60;99.90
22065;DHT22;11197;53.110;8.468;2022-08-01T06:45:02;17.60;99.90
22065;DHT22;11197;53.110;8.468;2022-08-01T06:47:28;17.70;99.90
22065;DHT22;11197;53.110;8.468;2022-08-01T06:49:54;17.60;99.90
22065;DHT22;11197;53.110;8.468;2022-08-01T06:52:20;17.70;99.90
22065;DHT22;11197;53.110;8.468;2022-08-01T06:54:46;17.60;99.90
22065;DHT22;11197;53.110;8.468;2022-08-01T06:57:12;17.60;99.90
22065;DHT22;11197;53.110;8.468;2022-08-01T06:59:38;17.70;99.90
22065;DHT22;11197;53.110;8.468;2022-08-01T07:02:04;17.70;99.90
22065;DHT22;11197;53.110;8.468;2022-08-01T07:04:30;17.70;99.90
22065;DHT22;11197;53.110;8.468;2022-08-01T07:06:56;17.70;99.90
22065;DHT22;11197;53.110;8.468;2022-08-01T07:09:22;17.70;99.90
22065;DHT22;11197;53.110;8.468;2022-08-01T07:11:48;17.70;99.90
22065;DHT22;11197;53.110;8.468;2022-08-01T07:14:14;17.70;99.90
22065;DHT22;11197;53.110;8.468;2022-08-01T07:16:40;17.70;99.90
22065;DHT22;11197;53.110;8.468;2022-08-01T07:19:06;17.70;99.90
22065;DHT22;11197;53.110;8.468;2022-08-01T07:21:32;17.70;99.90
22065;DHT22;11197;53.110;8.468;2022-08-01T07:23:58;17.70;99.90
22065;DHT22;11197;53.110;8.468;2022-08-01T07:26:25;17.80;99.90
22065;DHT22;11197;53.110;8.468;2022-08-01T07:28:52;17.80;99.90
22065;DHT22;11197;53.110;8.468;2022-08-01T07:31:18;17.80;99.90
22065;DHT22;11197;53.110;8.468;2022-08-01T07:33:45;17.80;99.90
22065;DHT22;11197;53.110;8.468;2022-08-01T07:36:11;17.90;99.90
22065;DHT22;11197;53.110;8.468;2022-08-01T07:38:37;17.90;99.90
22065;DHT22;11197;53.110;8.468;2022-08-01T07:41:03;18.00;99.90
22065;DHT22;11197;53.110;8.468;2022-08-01T07:43:29;18.00;99.90
22065;DHT22;11197;53.110;8.468;2022-08-01T07:45:55;18.10;99.90
22065;DHT22;11197;53.110;8.468;2022-08-01T07:48:21;18.10;99.90
22065;DHT22;11197;53.110;8.468;2022-08-01T07:50:50;18.10;99.90
22065;DHT22;11197;53.110;8.468;2022-08-01T07:53:16;18.20;99.90
22065;DHT22;11197;53.110;8.468;2022-08-01T07:55:42;18.20;99.90
22065;DHT22;11197;53.110;8.468;2022-08-01T07:58:08;18.30;99.90
22065;DHT22;11197;53.110;8.468;2022-08-01T08:00:34;18.30;99.90
22065;DHT22;11197;53.110;8.468;2022-08-01T08:03:00;18.40;99.90
22065;DHT22;11197;53.110;8.468;2022-08-01T08:05:26;18.50;99.90
22065;DHT22;11197;53.110;8.468;2022-08-01T08:07:52;18.50;99.90
22065;DHT22;11197;53.110;8.468;2022-08-01T08:10:18;18.50;99.90
22065;DHT22;11197;53.110;8.468;2022-08-01T08:12:44;18.50;99.90
22065;DHT22;11197;53.110;8.468;2022-08-01T08:15:12;18.50;99.90
22065;DHT22;11197;53.110;8.468;2022-08-01T08:17:39;18.60;99.90
22065;DHT22;11197;53.110;8.468;2022-08-01T08:20:06;18.60;99.90
22065;DHT22;11197;53.110;8.468;2022-08-01T08:22:33;18.60;99.90
22065;DHT22;11197;53.110;8.468;2022-08-01T08:24:59;18.60;99.90
22065;DHT22;11197;53.110;8.468;2022-08-01T08:27:26;18.70;99.90
22065;DHT22;11197;53.110;8.468;2022-08-01T08:29:52;18.70;99.90
22065;DHT22;11197;53.110;8.468;2022-08-01T08:32:18;18.70;99.90
22065;DHT22;11197;53.110;8.468;2022-08-01T08:34:44;18.60;99.90
22065;DHT22;11197;53.110;8.468;2022-08-01T08:37:10;18.70;99.90
22065;DHT22;11197;53.110;8.468;2022-08-01T08:39:37;18.70;99.90
22065;DHT22;11197;53.110;8.468;2022-08-01T08:42:06;18.70;99.90
22065;DHT22;11197;53.110;8.468;2022-08-01T08:44:32;18.80;99.90
22065;DHT22;11197;53.110;8.468;2022-08-01T08:47:01;18.80;99.90
22065;DHT22;11197;53.110;8.468;2022-08-01T08:49:28;18.90;99.90
22065;DHT22;11197;53.110;8.468;2022-08-01T08:51:59;18.90;99.90
22065;DHT22;11197;53.110;8.468;2022-08-01T08:54:26;19.00;99.90
22065;DHT22;11197;53.110;8.468;2022-08-01T08:56:54;19.00;99.90
22065;DHT22;11197;53.110;8.468;2022-08-01T08:59:21;19.00;99.90
22065;DHT22;11197;53.110;8.468;2022-08-01T09:01:47;19.00;99.90
22065;DHT22;11197;53.110;8.468;2022-08-01T09:04:14;19.00;99.90
22065;DHT22;11197;53.110;8.468;2022-08-01T09:06:40;19.00;99.90
22065;DHT22;11197;53.110;8.468;2022-08-01T09:09:07;19.10;99.90
22065;DHT22;11197;53.110;8.468;2022-08-01T09:11:34;19.10;99.90
22065;DHT22;11197;53.110;8.468;2022-08-01T09:16:43;19.10;99.90
22065;DHT22;11197;53.110;8.468;2022-08-01T09:19:18;19.20;99.90
22065;DHT22;11197;53.110;8.468;2022-08-01T09:21:59;19.10;99.90
22065;DHT22;11197;53.110;8.468;2022-08-01T09:24:26;19.20;99.90
22065;DHT22;11197;53.110;8.468;2022-08-01T09:26:53;19.20;99.90
22065;DHT22;11197;53.110;8.468;2022-08-01T09:29:26;19.20;99.90
22065;DHT22;11197;53.110;8.468;2022-08-01T09:31:53;19.20;99.90
22065;DHT22;11197;53.110;8.468;2022-08-01T09:34:28;19.20;99.90
22065;DHT22;11197;53.110;8.468;2022-08-01T09:37:03;19.30;99.90
22065;DHT22;11197;53.110;8.468;2022-08-01T09:39:37;19.30;99.90
22065;DHT22;11197;53.110;8.468;2022-08-01T09:42:27;19.30;99.90
22065;DHT22;11197;53.110;8.468;2022-08-01T09:44:54;19.30;99.90
22065;DHT22;11197;53.110;8.468;2022-08-01T09:47:20;19.40;99.90
22065;DHT22;11197;53.110;8.468;2022-08-01T09:49:56;19.40;99.90
22065;DHT22;11197;53.110;8.468;2022-08-01T09:52:24;19.50;99.90
22065;DHT22;11197;53.110;8.468;2022-08-01T09:57:22;19.40;99.90
22065;DHT22;11197;53.110;8.468;2022-08-01T09:59:51;19.40;99.90
22065;DHT22;11197;53.110;8.468;2022-08-01T10:04:53;19.40;99.90
22065;DHT22;11197;53.110;8.468;2022-08-01T10:07:21;19.50;99.90
22065;DHT22;11197;53.110;8.468;2022-08-01T10:09:48;19.50;99.90
22065;DHT22;11197;53.110;8.468;2022-08-01T10:12:19;19.50;99.90
22065;DHT22;11197;53.110;8.468;2022-08-01T10:14:48;19.60;99.90
22065;DHT22;11197;53.110;8.468;2022-08-01T10:17:24;19.50;99.90
22065;DHT22;11197;53.110;8.468;2022-08-01T10:19:51;19.50;99.90
22065;DHT22;11197;53.110;8.468;2022-08-01T10:22:23;19.50;99.90
22065;DHT22;11197;53.110;8.468;2022-08-01T10:24:50;19.50;99.90
22065;DHT22;11197;53.110;8.468;2022-08-01T10:27:21;19.50;99.90
22065;DHT22;11197;53.110;8.468;2022-08-01T10:29:54;19.50;99.90
22065;DHT22;11197;53.110;8.468;2022-08-01T10:32:21;19.60;99.90
22065;DHT22;11197;53.110;8.468;2022-08-01T10:34:49;19.60;99.90
22065;DHT22;11197;53.110;8.468;2022-08-01T10:37:15;19.60;99.90
22065;DHT22;11197;53.110;8.468;2022-08-01T10:39:43;19.70;99.90
22065;DHT22;11197;53.110;8.468;2022-08-01T10:42:11;19.70;99.90
22065;DHT22;11197;53.110;8.468;2022-08-01T10:44:38;19.70;99.90
22065;DHT22;11197;53.110;8.468;2022-08-01T10:47:12;19.70;99.90
22065;DHT22;11197;53.110;8.468;2022-08-01T10:49:53;19.70;99.90
22065;DHT22;11197;53.110;8.468;2022-08-01T10:52:21;19.70;99.90
22065;DHT22;11197;53.110;8.468;2022-08-01T10:54:48;19.70;99.90
22065;DHT22;11197;53.110;8.468;2022-08-01T10:57:14;19.80;99.90
22065;DHT22;11197;53.110;8.468;2022-08-01T10:59:51;19.70;99.90
22065;DHT22;11197;53.110;8.468;2022-08-01T11:02:31;19.80;99.90
22065;DHT22;11197;53.110;8.468;2022-08-01T11:05:09;19.70;99.90
22065;DHT22;11197;53.110;8.468;2022-08-01T11:07:48;19.70;99.90
22065;DHT22;11197;53.110;8.468;2022-08-01T11:10:25;19.70;99.90
22065;DHT22;11197;53.110;8.468;2022-08-01T11:12:54;19.70;99.90
22065;DHT22;11197;53.110;8.468;2022-08-01T11:15:21;19.70;99.90
22065;DHT22;11197;53.110;8.468;2022-08-01T11:17:51;19.80;99.90
22065;DHT22;11197;53.110;8.468;2022-08-01T11:20:36;19.80;99.90
22065;DHT22;11197;53.110;8.468;2022-08-01T11:23:15;19.80;99.90
22065;DHT22;11197;53.110;8.468;2022-08-01T11:30:48;19.90;99.90
22065;DHT22;11197;53.110;8.468;2022-08-01T11:33:16;19.90;99.90
22065;DHT22;11197;53.110;8.468;2022-08-01T11:46:52;20.00;99.90
22065;DHT22;11197;53.110;8.468;2022-08-01T11:52:04;20.10;99.90
22065;DHT22;11197;53.110;8.468;2022-08-01T11:57:29;20.10;99.90
22065;DHT22;11197;53.110;8.468;2022-08-01T12:00:10;20.20;99.90
22065;DHT22;11197;53.110;8.468;2022-08-01T12:02:39;20.20;99.90
22065;DHT22;11197;53.110;8.468;2022-08-01T12:05:13;20.20;99.90
22065;DHT22;11197;53.110;8.468;2022-08-01T12:07:41;20.30;99.90
22065;DHT22;11197;53.110;8.468;2022-08-01T12:10:09;20.30;99.90
22065;DHT22;11197;53.110;8.468;2022-08-01T12:12:41;20.40;99.90
22065;DHT22;11197;53.110;8.468;2022-08-01T12:15:08;20.30;99.90
22065;DHT22;11197;53.110;8.468;2022-08-01T12:20:15;20.30;99.90
22065;DHT22;11197;53.110;8.468;2022-08-01T12:22:42;20.30;99.90
22065;DHT22;11197;53.110;8.468;2022-08-01T12:25:14;20.30;99.90
22065;DHT22;11197;53.110;8.468;2022-08-01T12:27:42;20.30;99.90
22065;DHT22;11197;53.110;8.468;2022-08-01T12:30:19;20.30;99.90
22065;DHT22;11197;53.110;8.468;2022-08-01T12:32:48;20.30;99.90
22065;DHT22;11197;53.110;8.468;2022-08-01T12:35:20;20.30;99.90
22065;DHT22;11197;53.110;8.468;2022-08-01T12:37:58;20.30;99.90
22065;DHT22;11197;53.110;8.468;2022-08-01T12:40:30;20.30;99.90
22065;DHT22;11197;53.110;8.468;2022-08-01T12:43:06;20.30;99.90
22065;DHT22;11197;53.110;8.468;2022-08-01T12:45:38;20.40;99.90
22065;DHT22;11197;53.110;8.468;2022-08-01T12:48:12;20.30;99.90
22065;DHT22;11197;53.110;8.468;2022-08-01T12:50:40;20.30;99.90
22065;DHT22;11197;53.110;8.468;2022-08-01T12:53:08;20.30;99.90
22065;DHT22;11197;53.110;8.468;2022-08-01T12:55:44;20.30;99.90
22065;DHT22;11197;53.110;8.468;2022-08-01T12:58:13;20.40;99.90
22065;DHT22;11197;53.110;8.468;2022-08-01T13:00:40;20.40;99.90
22065;DHT22;11197;53.110;8.468;2022-08-01T13:03:25;20.40;99.90
22065;DHT22;11197;53.110;8.468;2022-08-01T13:05:55;20.50;99.90
22065;DHT22;11197;53.110;8.468;2022-08-01T13:08:24;20.50;99.90
22065;DHT22;11197;53.110;8.468;2022-08-01T13:11:03;20.50;99.90
22065;DHT22;11197;53.110;8.468;2022-08-01T13:13:50;20.50;99.90
22065;DHT22;11197;53.110;8.468;2022-08-01T13:16:18;20.50;99.90
22065;DHT22;11197;53.110;8.468;2022-08-01T13:18:50;20.50;99.90
22065;DHT22;11197;53.110;8.468;2022-08-01T13:21:21;20.40;99.90
22065;DHT22;11197;53.110;8.468;2022-08-01T13:26:48;20.40;99.90
22065;DHT22;11197;53.110;8.468;2022-08-01T13:29:18;20.40;99.90
22065;DHT22;11197;53.110;8.468;2022-08-01T13:31:44;20.40;99.90
22065;DHT22;11197;53.110;8.468;2022-08-01T13:34:10;20.40;99.90
22065;DHT22;11197;53.110;8.468;2022-08-01T13:36:37;20.40;99.90
22065;DHT22;11197;53.110;8.468;2022-08-01T13:39:04;20.40;99.90
22065;DHT22;11197;53.110;8.468;2022-08-01T13:41:48;20.40;99.90
22065;DHT22;11197;53.110;8.468;2022-08-01T13:44:14;20.40;99.90
22065;DHT22;11197;53.110;8.468;2022-08-01T13:46:42;20.40;99.90
22065;DHT22;11197;53.110;8.468;2022-08-01T13:49:09;20.40;99.90
22065;DHT22;11197;53.110;8.468;2022-08-01T13:51:36;20.50;99.90
22065;DHT22;11197;53.110;8.468;2022-08-01T13:54:03;20.60;99.90
22065;DHT22;11197;53.110;8.468;2022-08-01T13:56:29;20.70;99.90
22065;DHT22;11197;53.110;8.468;2022-08-01T13:58:56;20.70;99.90
22065;DHT22;11197;53.110;8.468;2022-08-01T14:01:23;20.80;99.90
22065;DHT22;11197;53.110;8.468;2022-08-01T14:07:36;20.80;99.90
22065;DHT22;11197;53.110;8.468;2022-08-01T14:10:02;20.90;99.90
22065;DHT22;11197;53.110;8.468;2022-08-01T14:12:29;20.90;99.90
22065;DHT22;11197;53.110;8.468;2022-08-01T14:14:57;21.00;99.90
22065;DHT22;11197;53.110;8.468;2022-08-01T14:17:22;21.00;99.90
22065;DHT22;11197;53.110;8.468;2022-08-01T14:19:50;21.10;99.90
22065;DHT22;11197;53.110;8.468;2022-08-01T14:22:15;21.10;99.90
22065;DHT22;11197;53.110;8.468;2022-08-01T14:24:41;21.10;99.90
22065;DHT22;11197;53.110;8.468;2022-08-01T14:27:07;21.20;99.90
22065;DHT22;11197;53.110;8.468;2022-08-01T14:29:36;21.10;99.90
22065;DHT22;11197;53.110;8.468;2022-08-01T14:32:02;21.20;99.90
22065;DHT22;11197;53.110;8.468;2022-08-01T14:34:28;21.20;99.90
22065;DHT22;11197;53.110;8.468;2022-08-01T14:36:54;21.20;99.90
22065;DHT22;11197;53.110;8.468;2022-08-01T14:39:20;21.20;99.90
22065;DHT22;11197;53.110;8.468;2022-08-01T14:41:46;21.30;99.90
22065;DHT22;11197;53.110;8.468;2022-08-01T14:44:12;21.30;99.90
22065;DHT22;11197;53.110;8.468;2022-08-01T14:46:38;21.40;99.90
22065;DHT22;11197;53.110;8.468;2022-08-01T14:49:05;21.40;99.90
22065;DHT22;11197;53.110;8.468;2022-08-01T14:51:31;21.50;99.90
22065;DHT22;11197;53.110;8.468;2022-08-01T14:53:58;21.50;99.90
22065;DHT22;11197;53.110;8.468;2022-08-01T14:56:24;21.50;99.90
22065;DHT22;11197;53.110;8.468;2022-08-01T14:58:50;21.50;99.90
22065;DHT22;11197;53.110;8.468;2022-08-01T15:01:16;21.60;99.90
22065;DHT22;11197;53.110;8.468;2022-08-01T15:03:43;21.60;99.90
22065;DHT22;11197;53.110;8.468;2022-08-01T15:06:09;21.60;99.90
22065;DHT22;11197;53.110;8.468;2022-08-01T15:08:37;21.60;99.90
22065;DHT22;11197;53.110;8.468;2022-08-01T15:11:03;21.70;99.60
22065;DHT22;11197;53.110;8.468;2022-08-01T15:13:29;21.70;99.10
22065;DHT22;11197;53.110;8.468;2022-08-01T15:15:55;21.70;98.60
22065;DHT22;11197;53.110;8.468;2022-08-01T15:18:20;21.70;98.90
22065;DHT22;11197;53.110;8.468;2022-08-01T15:20:50;21.70;98.70
22065;DHT22;11197;53.110;8.468;2022-08-01T15:23:18;21.70;99.30
22065;DHT22;11197;53.110;8.468;2022-08-01T15:25:44;21.80;99.00
22065;DHT22;11197;53.110;8.468;2022-08-01T15:28:10;21.80;98.40
22065;DHT22;11197;53.110;8.468;2022-08-01T15:30:37;21.80;98.10
22065;DHT22;11197;53.110;8.468;2022-08-01T15:33:03;21.80;98.40
22065;DHT22;11197;53.110;8.468;2022-08-01T15:35:29;21.80;98.50
22065;DHT22;11197;53.110;8.468;2022-08-01T15:37:55;21.80;98.50
22065;DHT22;11197;53.110;8.468;2022-08-01T15:40:20;21.80;98.10
22065;DHT22;11197;53.110;8.468;2022-08-01T15:42:46;21.90;98.10
22065;DHT22;11197;53.110;8.468;2022-08-01T15:45:12;21.90;98.30
22065;DHT22;11197;53.110;8.468;2022-08-01T15:47:42;21.90;98.20
22065;DHT22;11197;53.110;8.468;2022-08-01T15:50:08;21.90;98.10
22065;DHT22;11197;53.110;8.468;2022-08-01T15:52:34;22.00;98.20
22065;DHT22;11197;53.110;8.468;2022-08-01T15:55:01;22.00;97.10
22065;DHT22;11197;53.110;8.468;2022-08-01T15:57:27;21.90;97.00
22065;DHT22;11197;53.110;8.468;2022-08-01T15:59:53;21.90;97.20
22065;DHT22;11197;53.110;8.468;2022-08-01T16:02:19;21.70;97.10
22065;DHT22;11197;53.110;8.468;2022-08-01T16:04:45;21.70;97.50
22065;DHT22;11197;53.110;8.468;2022-08-01T16:07:11;21.60;97.50
22065;DHT22;11197;53.110;8.468;2022-08-01T16:09:37;21.60;97.70
22065;DHT22;11197;53.110;8.468;2022-08-01T16:12:03;21.70;97.50
22065;DHT22;11197;53.110;8.468;2022-08-01T16:14:29;21.70;97.30
22065;DHT22;11197;53.110;8.468;2022-08-01T16:16:55;21.70;97.30
22065;DHT22;11197;53.110;8.468;2022-08-01T16:19:21;21.70;97.10
22065;DHT22;11197;53.110;8.468;2022-08-01T16:21:48;21.70;96.80
22065;DHT22;11197;53.110;8.468;2022-08-01T16:24:15;21.60;96.80
22065;DHT22;11197;53.110;8.468;2022-08-01T16:26:41;21.60;97.00